CheckWX is a tool to help pilots better visualize weather data.  It is not intended as a substitute for an official pre-flight weather briefing.

00:33:31 UTC

KCHA TAF
Lovell Field Airport
Chattanooga, Tennessee, USA
KCHA 052320Z 0600/0624 00000KT P6SM FEW250 FM060500 VRB02KT P6SM OVC100 FM061500 15004KT P6SM BKN090 PROB30 0617/0620 4SM -RA OVC025 FM062000 14005KT P6SM VCSH OVC035

Dec-6@
00:00 UTC

Dec-6 @ 00:00 UTC

Dec-6@
05:00 UTC

Dec-6 @ 05:00 UTC

KCHA 052320Z 0600/0624 00000KT P6SM FEW250
Cloud Levels
  • Few at 25,000' AGL

Dec-6@
05:00 UTC

Dec-6 @ 05:00 UTC

Dec-6@
15:00 UTC

Dec-6 @ 15:00 UTC

FM060500 VRB02KT P6SM OVC100

From

From Standard forecast or significant change

Wind
  • Variable at 2 KTS
Cloud Levels
  • Overcast at 10,000' AGL

Dec-6@
15:00 UTC

Dec-6 @ 15:00 UTC

Dec-6@
20:00 UTC

Dec-6 @ 20:00 UTC

FM061500 15004KT P6SM BKN090

From

From Standard forecast or significant change

Wind
  • 150° at 4 KTS
Cloud Levels
  • Broken at 9,000' AGL

Dec-6@
17:00 UTC

Dec-6 @ 17:00 UTC

Dec-6@
20:00 UTC

Dec-6 @ 20:00 UTC

PROB30 0617/0620 4SM -RA OVC025

Probable - 30% Likelihood

Probable - 30% Likelihood during this time.

Conditions
Light Rain
Cloud Levels
  • Overcast at 2,500' AGL

Dec-6@
20:00 UTC

Dec-6 @ 20:00 UTC

Dec-7@
00:00 UTC

Dec-7 @ 00:00 UTC

FM062000 14005KT P6SM VCSH OVC035

From

From Standard forecast or significant change

Wind
  • 140° at 5 KTS
Cloud Levels
  • Overcast at 3,500' AGL